Tiempo atmosférico en la estación meteorológica de Puebla De Don Rodrigo, Ciudad Real (485 m.)



Fecha
DESCASC
Temp. máxima en grados centígrados (hora)
DESCASC
Temp. mínima en grados centígrados (hora)
DESCASC
Temp. media en grados centígrados
DESCASC
Racha de viento máxima en m/sg (hora)
DESCASC
Velocidad máxima media en intervalos de 10 minutos(hora)
DESCASC
Precipitaciones diarias en mm
DESCASC
Precipitaciones de 00:00 a 06:00 en mm
DESCASC
Precipitaciones de 06:00 a 12:00 en mm
DESCASC
Precipitaciones de 12:00 a 18:00 en mm
DESCASC
Precipitaciones de 18:00 a 24:00 en mm
DESCASC
20-09-2020 26 (16:00) 14.6 (07:10) 20.3 7.22 (15:50) 3.33 (18:00) 0 0 0 0 0
19-09-2020 25.3 (17:20) 15 (08:20) 20.1 10.83 (00:40) 5.56 (00:40) 1.3 0.6 0.7 0 0
18-09-2020 25 (13:40) 14.5 (15:50) 19.8 13.06 (15:50) 6.39 (15:50) 7.3 0.1 0 7.2 0
17-09-2020 28.5 (16:40) 16.8 (00:00) 22.6 10.28 (17:00) 5.83 (16:50) 2.7 0 0 0.1 2.6
16-09-2020 32.6 (14:50) 13.6 (00:00) 23.1 7.78 (18:40) 4.72 (18:20) 0 0 0 0 0
15-09-2020 31.6 (17:30) 18.7 (00:00) 25.2 7.22 (14:50) 3.61 (17:00) 0 0 0 0 0
14-09-2020 33.3 (15:10) 16.4 (00:00) 24.8 9.72 (17:20) 5.28 (19:40) 0 0 0 0 0
13-09-2020 34.5 (17:20) 16.6 (00:00) 25.6 6.94 (16:00) 4.17 (14:20) 0 0 0 0 0
12-09-2020 35.2 (18:10) 13.6 (00:00) 24.4 6.94 (16:00) 3.33 (17:10) 0 0 0 0 0
11-09-2020 34.5 (16:40) 12.4 (00:00) 23.4 5.28 (12:00) 3.06 (12:50) 0 0 0 0 0
10-09-2020 34.2 (16:20) 11.8 (00:00) 23 6.39 (14:20) 2.78 (14:30) 0 0 0 0 0
09-09-2020 32 (17:30) 13.8 (00:00) 22.9 6.11 (01:10) 2.78 (01:10) 0 0 0 0 0
08-09-2020 30.5 (17:40) 15.2 (00:00) 22.8 8.61 (12:40) 5.28 (12:30) 0 0 0 0 0
07-09-2020 33.1 (15:40) 15.9 (07:40) 24.5 8.33 (20:00) 5 (18:50) 0 0 0 0 0
06-09-2020 36.7 (15:50) 14.7 (00:00) 25.7 6.11 (16:10) 2.78 (17:20) 0 0 0 0 0
05-09-2020 35.5 (16:20) 12.9 (00:00) 24.2 5.56 (14:40) 3.06 (21:30) 0 0 0 0 0
04-09-2020 34.3 (16:10) 14.3 (00:00) 24.3 8.33 (15:40) 4.72 (15:40) 0 0 0 0 0
03-09-2020 34.5 (16:20) 12.6 (00:00) 23.6 7.5 (15:50) 3.89 (15:40) 0 0 0 0 0
02-09-2020 33.2 (17:10) 11 (00:00) 22.1 6.39 (14:30) 3.06 (15:20) 0 0 0 0 0
01-09-2020 30.9 (15:00) 12 (00:00) 21.4 6.94 (17:10) 3.61 (18:00) 0 0 0 0 0
31-08-2020 30.4 (17:00) 9.3 (00:00) 19.8 6.11 (12:20) 3.89 (12:20) 0 0 0 0 0
30-08-2020 28.2 (16:40) 12.4 (00:00) 20.3 6.39 (12:10) 3.89 (21:10) 0 0 0 0 0
29-08-2020 27.8 (16:50) 13.8 (00:00) 20.8 7.78 (11:20) 4.44 (11:20) 0 0 0 0 0
28-08-2020 33.5 (15:30) 19.5 (00:00) 26.5 10.28 (16:30) 5 (22:40) 0 0 0 0 0
27-08-2020 39.1 (15:20) 15.3 (00:00) 27.2 6.11 (16:50) 3.33 (17:50) 0 0 0 0 0
26-08-2020 38.8 (16:30) 16.5 (00:00) 27.6 5.83 (15:00) 3.33 (15:00) 0 0 0 0 0
25-08-2020 38.4 (16:30) 14.7 (00:00) 26.6 5.56 (15:40) 2.78 (21:30) 0 0 0 0 0
24-08-2020 37.1 (16:10) 12.7 (00:00) 24.9 5.83 (17:10) 2.78 (21:50) 0 0 0 0 0

Gráficas

Temp. máximas Temp. mínimas Temp. medias Precipitaciones Rachas de viento máximas Velocidades máximas media en intervalos de 10 minutos

Datos horarios

Fecha y hora oficial Temperatura (ºC) Velocidad del viento (km/h) Dirección del viento Racha (km/h) Dirección de racha Precipitación (mm) Presión (hPa) Tendencia (hPa) Humedad (%)
2020-09-22 23:00:00 21 3 Sudoeste 9 Oeste 0 954.5 0.9 50
2020-09-22 22:00:00 21 3 Sudoeste 9 Oeste 0 954.3 0.7 49
2020-09-22 21:00:00 21.2 5 Sudoeste 8 Oeste 0 953.8 -- 45
2020-09-22 20:00:00 22.7 3 Oeste 15 Oeste 0 953.6 -- 39
2020-09-22 19:00:00 24.2 6 Oeste 22 Oeste 0 953.6 -- 36
2020-09-22 18:00:00 25.2 10 Sudoeste 27 Oeste 0 953.7 -- 34
2020-09-22 17:00:00 26.7 7 Oeste 22 Oeste 0 954 -- 32
2020-09-22 16:00:00 26.5 7 Oeste 21 Sudoeste 0 954.4 -- 33
2020-09-22 15:00:00 27.8 6 Oeste 27 Sudoeste 0 955.3 -- 32
2020-09-22 14:00:00 25.9 8 Sudoeste 22 Oeste 0 955.9 -- 35
2020-09-22 13:00:00 23.2 6 Oeste 17 Oeste 0 956.4 -- 36
2020-09-22 12:00:00 24 3 Este 12 Sudeste 0 956.5 -- 39
2020-09-22 11:00:00 18.9 5 Este 9 Este 0 957 -- 52
2020-09-22 10:00:00 16.3 0 Calma 4 Sudeste 0 956.7 -- 66
2020-09-22 09:00:00 12.3 0 Calma 4 Noroeste 0 956.4 -- 87
2020-09-22 08:00:00 11.4 3 Noroeste 5 Norte 0 956 -- 90
2020-09-22 07:00:00 11.3 0 Calma 2 Este 0 955.6 -- 89
2020-09-22 06:00:00 11.9 0 Calma -- -- 0 955.7 -- 85
2020-09-22 05:00:00 12.2 0 Calma 0 Calma 0 955.8 -- 82
2020-09-22 04:00:00 13.3 0 Calma 6 Oeste 0 956.3 -- 76
2020-09-22 03:00:00 14.6 2 Norte 5 Noroeste 0 956.7 -- 71
2020-09-22 02:00:00 15.3 0 Calma 4 Noroeste 0 957 -- 64
2020-09-22 01:00:00 15.7 0 Calma 10 Oeste 0 957.1 -- 61
2020-09-22 00:00:00 18.3 6 Sudoeste 11 Sudoeste 0 957 -- 49
2020-09-21 23:00:00 18.1 6 Oeste 10 Oeste 0 957 -- 48
2020-09-21 22:00:00 19.3 5 Oeste 11 Sudoeste 0 956.7 -- 42
2020-09-21 21:00:00 20.7 7 Sudoeste 14 Sudoeste 0 956.4 -- 36
2020-09-21 20:00:00 22 5 Oeste 19 Oeste 0 956.3 -- 30
2020-09-21 19:00:00 23.5 8 Sudoeste 18 Oeste 0 956.3 -- 27
2020-09-21 18:00:00 25.6 5 Oeste 22 Oeste 0 956.1 -- 25
2020-09-21 17:00:00 26.2 7 Oeste 23 Sudoeste 0 956.4 -- 25
2020-09-21 16:00:00 27 8 Oeste 21 Sudoeste 0 956.7 -- 26
2020-09-21 15:00:00 24.8 10 Sudoeste 23 Sudoeste 0 957.2 -- 31
2020-09-21 14:00:00 23.8 4 Oeste 17 Sudoeste 0 957.8 -- 32
2020-09-21 13:00:00 22.7 0 Calma 12 Sudoeste 0 958.2 -- 39
2020-09-21 12:00:00 22 4 Este 9 Este 0 958.5 -- 48
2020-09-21 11:00:00 17.3 4 Este 7 Este 0 958.5 -- 69
2020-09-21 10:00:00 13.6 3 Nordeste 5 Este 0 958.5 -- 89
2020-09-21 09:00:00 12.3 0 Calma -- -- 0 958.1 -- 95
2020-09-21 08:00:00 11.6 0 Calma -- -- 0 957.8 -- 96
2020-09-21 07:00:00 12.1 0 Calma 3 Noroeste 0 957.6 -- 96
2020-09-21 06:00:00 12.1 0 Calma 2 Este 0 957.5 -- 96
2020-09-21 05:00:00 12.5 0 Calma 3 Nordeste 0 957.5 -- 96
2020-09-21 04:00:00 12.8 0 Calma 4 Oeste 0 957.5 -- 93
2020-09-21 03:00:00 13.8 0 Calma 5 Norte 0 957.9 -- 92
2020-09-21 02:00:00 15.3 0 Calma 4 Noroeste 0 958 -- 86
2020-09-21 01:00:00 15.5 0 Calma 5 Este 0 958.1 -- 83
2020-09-21 00:00:00 16.7 0 Calma 8 Sudoeste 0 958.2 -- 76
2020-09-20 23:00:00 17.8 4 Oeste 6 Oeste 0 958.2 -- 70
2020-09-20 22:00:00 18.5 4 Norte 12 Sudoeste 0 958.1 -- 65
2020-09-20 21:00:00 19.5 3 Sudoeste 10 Oeste 0 957.5 -- 58
2020-09-20 20:00:00 21.3 4 Oeste 17 Oeste 0 957.3 -- 47
2020-09-20 19:00:00 22.7 8 Oeste 22 Oeste 0 956.7 -- 41
2020-09-20 18:00:00 23.9 12 Sudoeste 25 Sudoeste 0 956.9 -- 40
2020-09-20 17:00:00 24.4 9 Sudoeste 26 Oeste 0 957 -- 39
2020-09-20 16:00:00 25.8 5 Oeste 26 Oeste 0 957.5 -- 39
2020-09-20 15:00:00 22.8 10 Sudoeste 22 Sudoeste 0 958.1 -- 47
2020-09-20 14:00:00 22 9 Oeste 20 Oeste 0 958.5 -- 50
2020-09-20 13:00:00 22 5 Sudoeste 21 Sur 0 958.7 -- 51
2020-09-20 12:00:00 18.3 10 Sudoeste 16 Sur 0 959.1 -- 68
2020-09-20 11:00:00 17.7 10 Sur 18 Sudoeste 0 958.8 -- 70
2020-09-20 10:00:00 18.1 3 Sudoeste 10 Sur 0 958.6 -- 70
2020-09-20 09:00:00 16.4 4 Sur 6 Sudoeste 0 958.3 -- 86
2020-09-20 08:00:00 15.3 0 Calma 5 Sudoeste 0 958.1 -- 90
2020-09-20 07:00:00 14.8 0 Calma 6 Sudoeste 0 958 -- 90
2020-09-20 06:00:00 15 3 Oeste 8 Oeste 0 958.1 -- 88
2020-09-20 05:00:00 15.9 5 Sudoeste 8 Sudoeste 0 958.1 -- 82
2020-09-20 04:00:00 16.5 0 Calma 10 Oeste 0 958.1 -- 76
2020-09-20 03:00:00 17.3 5 Sudoeste 15 Sudoeste 0 958.2 -- 70
2020-09-20 02:00:00 18.5 8 Sudoeste 17 Oeste 0 958.1 -- 67
2020-09-20 01:00:00 18.1 10 Sudoeste 15 Sur 0 958 -- 69
2020-09-20 00:00:00 18.1 7 Sudoeste 10 Sudoeste 0 958.1 -- 60
2020-09-19 23:00:00 19.4 3 Sudoeste 9 Sudoeste 0 958 -- 53
2020-09-19 22:00:00 20 3 Sudoeste 8 Sudoeste 0 957.4 -- 50
2020-09-19 21:00:00 20.6 5 Sudoeste 13 Oeste 0 956.6 -- 47
2020-09-19 20:00:00 21.1 5 Oeste 16 Noroeste 0 956.3 -- 43
2020-09-19 19:00:00 22.5 5 Oeste 22 Oeste 0 956 -- 39
2020-09-19 18:00:00 23.5 7 Oeste 27 Oeste 0 955.8 -- 37
2020-09-19 17:00:00 23.9 11 Sudoeste 28 Sudoeste 0 956 -- 38
2020-09-19 16:00:00 23.5 16 Sudoeste 32 Sudoeste 0 956.2 -- 38
2020-09-19 15:00:00 23.6 12 Oeste 30 Oeste 0 956.6 -- 39
2020-09-19 14:00:00 22.7 18 Sudoeste 29 Sudoeste 0 957 -- 42
2020-09-19 13:00:00 20.7 11 Sudoeste 27 Sudoeste 0 957.2 -- 50
2020-09-19 12:00:00 18.6 9 Sudoeste 22 Sudoeste 0 957.1 -- 60
2020-09-19 11:00:00 17.3 7 Sudoeste 16 Sudoeste 0.5 957.1 -- 85
2020-09-19 10:00:00 16.3 7 Sudoeste 15 Sur 0 956.6 -- 86
2020-09-19 09:00:00 15.3 6 Sudoeste 19 Sudoeste 0.1 956.1 -- 92
2020-09-19 08:00:00 15.7 6 Sudoeste 18 Sudoeste 0 955.4 -- 86
2020-09-19 07:00:00 15.4 4 Sur 18 Sudoeste 0.1 955.1 -- 91
2020-09-19 06:00:00 15.3 8 Oeste 19 Sudoeste 0.6 954.9 -- 92
2020-09-19 05:00:00 15.8 8 Sudoeste 21 Oeste 0 954.3 -- 82
2020-09-19 04:00:00 16.6 11 Sudoeste 25 Sudoeste 0 954.4 -- 75
2020-09-19 03:00:00 16.6 10 Sur 30 Sudoeste 0 954.5 -- 76
2020-09-19 02:00:00 17.1 16 Sur 31 Sudoeste 0 954.3 -- 73
2020-09-19 01:00:00 17.2 20 Sudoeste 39 Sudoeste 0 954 -- 72
2020-09-19 00:00:00 17.4 14 Sur 33 Sur 0 953.8 -- 71
2020-09-18 23:00:00 17.4 14 Sur 33 Sur 0 953.7 -- 71
2020-09-18 22:00:00 18.5 16 Sur 31 Sur 0 953.2 -- 67
2020-09-18 21:00:00 18.4 10 Sur 20 Sur 0 952.8 -- 70
2020-09-18 20:00:00 18.9 15 Sur 27 Sur 0 952.5 -- 66
2020-09-18 19:00:00 18.3 10 Sur 17 Sur 0 952.5 -- 76
2020-09-18 18:00:00 18.7 8 Este 17 Este 0 952.2 -- 73
2020-09-18 17:00:00 17.5 12 Este 19 Este 0.3 952.6 -- 89
2020-09-18 16:00:00 15 7 Sudoeste 47 Sudoeste 5.7 952.5 -- 96
2020-09-18 15:00:00 18.5 18 Sur 29 Sur 1.2 951.2 -- 75
2020-09-18 14:00:00 23.9 19 Sur 31 Sur 0 951.5 -- 47
2020-09-18 13:00:00 21.7 15 Sur 27 Sur 0 952.4 -- 58
2020-09-18 12:00:00 21.3 12 Sur 20 Sur 0 952.5 -- 61
2020-09-18 11:00:00 21 9 Sur 17 Sur 0 952.6 -- 66
2020-09-18 10:00:00 18.5 3 Sudoeste 12 Sur 0 952.1 -- 75
2020-09-18 09:00:00 18.2 12 Sur 20 Sur 0 951.9 -- 76
2020-09-18 08:00:00 18.1 14 Sur 23 Sur 0 951.1 -- 75
2020-09-18 07:00:00 18.8 10 Sur 14 Sur 0 951.1 -- 70
2020-09-18 06:00:00 19.2 8 Sur 19 Sur 0 950.8 -- 68
2020-09-18 05:00:00 18.9 10 Sur 25 Sur 0 951 -- 69
2020-09-18 04:00:00 19.5 15 Sur 33 Sur 0.1 951.6 -- 67
2020-09-18 03:00:00 19.4 11 Sur 26 Sur 0 951.7 -- 74
2020-09-18 02:00:00 19.8 12 Sur 19 Sur 0 951.5 -- 77
2020-09-18 01:00:00 19.7 11 Sudoeste 24 Sur 0 951.9 -- 77
2020-09-18 00:00:00 20.4 10 Sur 20 Sur 0 952.4 -- 75
2020-09-17 23:00:00 19.4 12 Sur 22 Sur 0 952.5 -- 77
2020-09-17 22:00:00 17.9 2 Oeste 12 Este 0.1 952.2 -- 87
2020-09-17 21:00:00 17.3 11 Este 30 Este 0.3 951.8 -- 84
2020-09-17 20:00:00 18.5 5 Sudoeste 15 Sudoeste 0.2 951.7 -- 93
2020-09-17 19:00:00 19.3 14 Sudoeste 36 Sudoeste 2 952 -- 85
2020-09-17 18:00:00 26.6 12 Sudoeste 33 Sudoeste 0 951 -- 39
2020-09-17 17:00:00 27.5 21 Sudoeste 37 Sudoeste 0 951.3 -- 38
2020-09-17 16:00:00 26.8 6 Sudeste 28 Sudoeste 0.1 952.1 -- 51
2020-09-17 15:00:00 25.6 15 Sur 27 Sur 0 953.1 -- 46
2020-09-17 14:00:00 22.5 9 Sudeste 17 Sudeste 0 953.8 -- 65
2020-09-17 13:00:00 21.4 8 Sudeste 16 Este 0 954.1 -- 70
2020-09-17 12:00:00 21 7 Este 12 Este 0 954.6 -- 73
2020-09-17 11:00:00 19.4 7 Este 11 Este 0 954.7 -- 77
2020-09-17 10:00:00 19.1 4 Sudeste 9 Este 0 954.6 -- 75
2020-09-17 09:00:00 18.6 0 Calma 7 Este 0 954.8 -- 82
2020-09-17 08:00:00 16.9 5 Este 11 Este 0 954 -- 92
2020-09-17 07:00:00 17.2 6 Este 13 Sudeste 0 953.7 -- 93
2020-09-17 06:00:00 17.5 8 Este 14 Este 0 954 -- 92
2020-09-17 05:00:00 18 3 Este 10 Sudeste 0 954.4 -- 89
2020-09-17 04:00:00 18.2 6 Nordeste 27 Este 0 955.1 -- 88
2020-09-17 03:00:00 21.2 0 Calma 11 Sur 0 955.4 -- 61
2020-09-17 02:00:00 22 15 Sur 24 Sur 0 955.6 -- 56
2020-09-17 01:00:00 23.7 6 Sur 11 Sudeste 0 955.7 -- 46
2020-09-17 00:00:00 24.1 2 Sur 9 Sudoeste 0 955.5 -- 43
2020-09-16 23:00:00 24.8 3 Sudoeste 6 Sudoeste 0 955.3 -- 42
2020-09-16 22:00:00 25.4 5 Sudoeste 12 Sudoeste 0 955 -- 40
2020-09-16 21:00:00 26.2 7 Sudoeste 20 Sudoeste 0 954.7 -- 38
2020-09-16 20:00:00 27.5 15 Sudoeste 23 Sur 0 954.2 -- 39
2020-09-16 19:00:00 28.7 17 Sudoeste 28 Sudoeste 0 954 -- 37
2020-09-16 18:00:00 29.9 12 Sudoeste 24 Sudoeste 0 954.1 -- 36
2020-09-16 17:00:00 30.3 12 Sur 24 Sudeste 0 954.1 -- 34
2020-09-16 16:00:00 30.5 7 Este 23 Sudeste 0 955 -- 34
2020-09-16 15:00:00 30.9 3 Sudeste 22 Sudeste 0 955.8 -- 34
2020-09-16 14:00:00 30.9 3 Norte 25 Sudeste 0 956.8 -- 37
2020-09-16 13:00:00 30 3 Nordeste 15 Este 0 957.4 -- 39
2020-09-16 12:00:00 26.6 4 Este 9 Este 0 958.3 -- 46
2020-09-16 11:00:00 23.2 3 Este 8 Este 0 958.7 -- 55
2020-09-16 10:00:00 17.9 2 Nordeste 6 Este 0 958.8 -- 70
2020-09-16 09:00:00 16.1 0 Calma 2 Sudeste 0 958.9 -- 78
2020-09-16 08:00:00 13.8 0 Calma 4 Oeste 0 958.5 -- 87
2020-09-16 07:00:00 14.7 0 Calma -- -- 0 958.5 -- 82
2020-09-16 06:00:00 15.4 0 Calma 4 Sudoeste 0 958.5 -- 80
2020-09-16 05:00:00 16.4 0 Calma 3 Nordeste 0 958.6 -- 73
2020-09-16 04:00:00 17.4 0 Calma -- -- 0 959.1 -- 70
2020-09-16 03:00:00 18.4 0 Calma -- -- 0 959.2 -- 65
2020-09-16 02:00:00 19.4 0 Calma 4 Sudoeste 0 959.4 -- 62
2020-09-16 01:00:00 20.8 0 Calma 9 Sudoeste 0 959.4 -- 60
2020-09-16 00:00:00 21.9 0 Calma 10 Oeste 0 959.2 -- 54
2020-09-15 23:00:00 23.1 8 Sudoeste 10 Sudoeste 0 958.9 -- 50
2020-09-15 22:00:00 23.5 6 Sudoeste 13 Oeste 0 958.5 -- 46
2020-09-15 21:00:00 25.2 8 Sudoeste 10 Sudoeste 0 958.2 -- 43
2020-09-15 20:00:00 27.7 3 Oeste 14 Sudoeste 0 957.9 -- 39
2020-09-15 19:00:00 29 4 Oeste 21 Sudoeste 0 957.9 -- 37
2020-09-15 18:00:00 30.4 4 Sur 23 Sudoeste 0 958.2 -- 36
2020-09-15 17:00:00 29.8 13 Sur 25 Sudoeste 0 958.7 -- 37
2020-09-15 16:00:00 30.1 4 Sur 25 Sudoeste 0 959.1 -- 38
2020-09-15 15:00:00 29.7 10 Sudoeste 26 Sur 0 959.8 -- 41
2020-09-15 14:00:00 29 12 Sur 24 Sur 0 960.5 -- 45
2020-09-15 13:00:00 28 9 Sur 23 Sudoeste 0 961 -- 48
2020-09-15 12:00:00 26.4 7 Sudoeste 18 Sur 0 961.4 -- 55
2020-09-15 11:00:00 25.2 4 Sudeste 11 Este 0 961.5 -- 61
2020-09-15 10:00:00 22.6 3 Este 8 Nordeste 0 961.1 -- 69
2020-09-15 09:00:00 19.5 0 Calma 4 Sudoeste 0 960.9 -- 76
2020-09-15 08:00:00 19.8 4 Oeste 6 Oeste 0 960.4 -- 81
2020-09-15 07:00:00 19.2 0 Calma 6 Noroeste 0 960.3 -- 72
2020-09-15 06:00:00 20.5 0 Calma 4 Nordeste 0 960.1 -- 70
2020-09-15 05:00:00 20.1 0 Calma 7 Noroeste 0 960.1 -- 71
2020-09-15 04:00:00 21.1 2 Sudoeste 6 Sudoeste 0 960.1 -- 67
2020-09-15 03:00:00 22.1 3 Sudoeste 6 Oeste 0 960.4 -- 64
2020-09-15 02:00:00 22.3 3 Noroeste 7 Norte 0 960 -- 62
2020-09-15 01:00:00 22.8 3 Oeste 6 Sudoeste 0 959.7 -- 60
2020-09-15 00:00:00 22.6 0 Calma 7 Sudoeste 0 959.5 -- 56
2020-09-14 23:00:00 23.8 0 Calma 16 Este 0 958.8 -- 51
2020-09-14 22:00:00 24.9 5 Nordeste 21 Sur 0 958.6 -- 48
2020-09-14 21:00:00 25.9 14 Sur 20 Sudeste 0 957.6 -- 45
2020-09-14 20:00:00 27.9 17 Sur 32 Sur 0 957.2 -- 40
2020-09-14 19:00:00 29.1 17 Sur 28 Sur 0 957.1 -- 37
2020-09-14 18:00:00 29.7 17 Sur 35 Sudoeste 0 957.6 -- 35
2020-09-14 17:00:00 30.5 18 Sudoeste 28 Sudoeste 0 957.8 -- 33
2020-09-14 16:00:00 30.8 14 Sudoeste 28 Sudoeste 0 958.5 -- 34
2020-09-14 15:00:00 32.5 2 Sur 18 Sur 0 959 -- 33
2020-09-14 14:00:00 30.3 4 Sur 18 Sudeste 0 959.8 -- 37
2020-09-14 13:00:00 30.6 10 Este 22 Nordeste 0 960.5 -- 39
2020-09-14 12:00:00 26.7 5 Este 14 Este 0 960.8 -- 45
2020-09-14 11:00:00 23.1 7 Este 14 Sudeste 0 960.7 -- 53
2020-09-14 10:00:00 20.4 6 Este 10 Nordeste 0 960.6 -- 56
2020-09-14 09:00:00 19.5 0 Calma 6 Norte 0 960.4 -- 58
2020-09-14 08:00:00 17.2 0 Calma 6 Norte 0 960.2 -- 61
2020-09-14 07:00:00 17.3 0 Calma 6 Sur 0 959.8 -- 59
2020-09-14 06:00:00 16.6 0 Calma 8 Norte 0 959.7 -- 60
2020-09-14 05:00:00 18.5 0 Calma 6 Nordeste 0 959.6 -- 54
2020-09-14 04:00:00 20.9 5 Sudoeste 8 Sudoeste 0 960 -- 49
2020-09-14 03:00:00 22.2 8 Sudoeste 12 Sudoeste 0 960.6 -- 43
2020-09-14 02:00:00 23 0 Calma 7 Sudoeste 0 960.3 -- 42
2020-09-14 01:00:00 24 2 Sudoeste 9 Este 0 960.3 -- 39
2020-09-14 00:00:00 25.7 2 Sudeste 10 Este 0 959.9 -- 37
2020-09-13 23:00:00 26.7 6 Este 18 Sudeste 0 959.5 -- 34
2020-09-13 22:00:00 27.8 8 Sudeste 17 Sudeste 0 958.7 -- 33
2020-09-13 21:00:00 28.3 0 Calma 10 Norte 0 957.9 -- 33
2020-09-13 20:00:00 30.3 0 Calma 9 Sudeste 0 957.9 -- 31
2020-09-13 19:00:00 31.7 4 Este 15 Nordeste 0 958 -- 30
2020-09-13 18:00:00 32.5 8 Sudeste 24 Este 0 958.1 -- 29
2020-09-13 17:00:00 32.7 9 Este 22 Sur 0 958.7 -- 30
2020-09-13 16:00:00 31.7 12 Este 25 Este 0 959.2 -- 31
2020-09-13 15:00:00 31.5 13 Sudeste 23 Sudeste 0 959.8 -- 32
2020-09-13 14:00:00 30.6 13 Sudeste 24 Este 0 959.7 -- 34
2020-09-13 13:00:00 29.6 10 Este 21 Este 0 960.4 -- 37
2020-09-13 12:00:00 27.9 3 Este 11 Este 0 960.7 -- 42
2020-09-13 11:00:00 24.6 5 Este 11 Nordeste 0 960.7 -- 47
2020-09-13 10:00:00 21.1 6 Este 10 Nordeste 0 960.3 -- 50
2020-09-13 09:00:00 19.1 0 Calma 5 Este 0 960 -- 55
2020-09-13 08:00:00 16.8 0 Calma -- -- 0 959.5 -- 58
2020-09-13 07:00:00 17.6 0 Calma 5 Noroeste 0 959.1 -- 54
2020-09-13 06:00:00 18.2 0 Calma -- -- 0 958.7 -- 51
2020-09-13 05:00:00 19.8 0 Calma 4 Sudoeste 0 958.5 -- 49
2020-09-13 04:00:00 19.9 0 Calma 6 Oeste 0 958.1 -- 48
2020-09-13 03:00:00 21.3 0 Calma 8 Sudeste 0 957.8 -- 43
2020-09-13 02:00:00 20.6 0 Calma 6 Sudoeste 0 957.9 -- 43
2020-09-13 01:00:00 22.9 0 Calma 4 Sudoeste 0 957.8 -- 38
2020-09-13 00:00:00 22.9 0 Calma 6 Sudoeste 0 957.7 -- 37
2020-09-12 23:00:00 25.6 0 Calma 5 Nordeste 0 956.9 -- 33
2020-09-12 22:00:00 28.3 0 Calma 6 Sudeste 0 956.3 -- 30
2020-09-12 21:00:00 28.7 0 Calma 12 Nordeste 0 955.6 -- 29
2020-09-12 20:00:00 31.2 9 Nordeste 14 Nordeste 0 955.5 -- 28
2020-09-12 19:00:00 32.4 5 Sudeste 23 Sudeste 0 955.3 -- 27
2020-09-12 18:00:00 35 10 Sudeste 23 Este 0 955.4 -- 26
2020-09-12 17:00:00 34.3 7 Sudeste 22 Sudeste 0 955.4 -- 27
2020-09-12 16:00:00 34.3 10 Sudeste 25 Sur 0 955.7 -- 27
2020-09-12 15:00:00 34.1 6 Sudoeste 19 Sudeste 0 955.8 -- 28
2020-09-12 14:00:00 33.7 3 Este 15 Sudeste 0 956.3 -- 29
2020-09-12 13:00:00 32 4 Este 13 Este 0 957 -- 32
2020-09-12 12:00:00 29.5 5 Este 13 Este 0 957 -- 38
2020-09-12 11:00:00 24.6 6 Este 12 Nordeste 0 957 -- 46
2020-09-12 10:00:00 20.8 4 Nordeste 8 Nordeste 0 956.6 -- 51
2020-09-12 09:00:00 16.7 0 Calma 4 Nordeste 0 956.5 -- 61
2020-09-12 08:00:00 13.9 0 Calma 4 Nordeste 0 955.6 -- 63
2020-09-12 07:00:00 15 0 Calma 4 Nordeste 0 955.2 -- 60
2020-09-12 06:00:00 15.3 0 Calma 4 Nordeste 0 954.7 -- 58
2020-09-12 05:00:00 16.2 0 Calma 2 Sudoeste 0 954.4 -- 54
2020-09-12 04:00:00 17.2 0 Calma 3 Nordeste 0 954.3 -- 50
2020-09-12 03:00:00 18.6 0 Calma 5 Oeste 0 954.3 -- 47
2020-09-12 02:00:00 19.1 0 Calma 5 Sudeste 0 954.2 -- 43
2020-09-12 01:00:00 21.6 0 Calma 4 Sudeste 0 954.3 -- 39
2020-09-12 00:00:00 23.1 0 Calma 9 Norte 0 953.9 -- 36
2020-09-11 23:00:00 24.9 2 Oeste 12 Oeste 0 953.6 -- 33
2020-09-11 22:00:00 25.7 7 Oeste 12 Oeste 0 953.2 -- 32
2020-09-11 21:00:00 27.2 4 Sudoeste 11 Oeste 0 952.5 -- 29
2020-09-11 20:00:00 30.2 4 Oeste 9 Oeste 0 952.2 -- 27
2020-09-11 19:00:00 30.9 4 Oeste 13 Sur 0 952.3 -- 26
2020-09-11 18:00:00 32.2 7 Sur 17 Sur 0 952.6 -- 25
2020-09-11 17:00:00 31.4 5 Sur 16 Sudeste 0 952.8 -- 25
2020-09-11 16:00:00 33.8 3 Sudoeste 15 Sudoeste 0 953.5 -- 26
2020-09-11 15:00:00 32.2 6 Sudoeste 17 Este 0 953.8 -- 27
2020-09-11 14:00:00 32.1 4 Este 18 Este 0 954.2 -- 28
2020-09-11 13:00:00 30.4 9 Este 18 Este 0 955.1 -- 32
2020-09-11 12:00:00 28.3 10 Este 19 Este 0 955.3 -- 37
2020-09-11 11:00:00 23 6 Este 11 Este 0 955.6 -- 44
2020-09-11 10:00:00 18.5 3 Este 7 Este 0 955.4 -- 51
2020-09-11 09:00:00 15.2 3 Este 6 Este 0 955.3 -- 60
2020-09-11 08:00:00 12.6 0 Calma 4 Nordeste 0 954.8 -- 64
2020-09-11 07:00:00 13.6 0 Calma 2 Sudoeste 0 954.7 -- 60
2020-09-11 06:00:00 14.3 0 Calma 3 Este 0 954.5 -- 57
2020-09-11 05:00:00 15.3 0 Calma -- -- 0 954.6 -- 54
2020-09-11 04:00:00 16.2 0 Calma 3 Sudoeste 0 954.6 -- 50
2020-09-11 03:00:00 17 0 Calma 4 Norte 0 955 -- 46
2020-09-11 02:00:00 18.9 0 Calma 4 Sur 0 955.4 -- 42
2020-09-11 01:00:00 20.2 0 Calma 4 Este 0 955.5 -- 38
2020-09-11 00:00:00 23 0 Calma 6 Este 0 955.5 -- 34
2020-09-10 23:00:00 23.5 4 Este 13 Oeste 0 955.5 -- 32
2020-09-10 22:00:00 26.6 0 Calma 9 Sudoeste 0 955 -- 29
2020-09-10 21:00:00 26.3 3 Sudoeste 7 Oeste 0 954.5 -- 29
2020-09-10 20:00:00 29 3 Oeste 10 Noroeste 0 954.3 -- 27
2020-09-10 19:00:00 30.5 0 Calma 17 Norte 0 954.6 -- 26
2020-09-10 18:00:00 32.9 3 Sudoeste 17 Oeste 0 954.9 -- 24
2020-09-10 17:00:00 32.5 5 Norte 18 Nordeste 0 955.4 -- 24
2020-09-10 16:00:00 32.9 9 Norte 18 Este 0 956.1 -- 26
2020-09-10 15:00:00 31.3 6 Sudoeste 23 Sudoeste 0 956.9 -- 27
2020-09-10 14:00:00 32.3 6 Oeste 16 Oeste 0 957.6 -- 28
2020-09-10 13:00:00 30.1 2 Sudoeste 10 Sudeste 0 958.4 -- 30
2020-09-10 12:00:00 27.7 4 Este 9 Este 0 958.9 -- 37
2020-09-10 11:00:00 23.6 2 Este 8 Nordeste 0 959.2 -- 43
2020-09-10 10:00:00 18.4 3 Este 8 Sudeste 0 959.2 -- 57
2020-09-10 09:00:00 15.4 2 Nordeste 6 Este 0 958.9 -- 68
2020-09-10 08:00:00 12.3 0 Calma 4 Norte 0 958.5 -- 76
2020-09-10 07:00:00 13 0 Calma -- -- 0 958.1 -- 73
2020-09-10 06:00:00 13.4 0 Calma -- -- 0 958.2 -- 69
2020-09-10 05:00:00 15.2 0 Calma -- -- 0 958.3 -- 64
2020-09-10 04:00:00 15.3 0 Calma 6 Sudoeste 0 958.6 -- 61
2020-09-10 03:00:00 16.9 4 Noroeste 8 Noroeste 0 958.8 -- 58
2020-09-10 02:00:00 18 0 Calma 3 Nordeste 0 959 -- 53
2020-09-10 01:00:00 18.6 0 Calma 3 Sur 0 959.2 -- 50
2020-09-10 00:00:00 20.2 0 Calma 4 Sudeste 0 959.1 -- 46
2020-09-09 23:00:00 22.4 4 Sudoeste 9 Sudoeste 0 958.8 -- 42
2020-09-09 22:00:00 23.7 4 Sudoeste 7 Sudoeste 0 958.7 -- 41
2020-09-09 21:00:00 26.1 2 Oeste 8 Sudoeste 0 957.8 -- 38
2020-09-09 20:00:00 27.4 5 Sudoeste 9 Oeste 0 957.8 -- 36
2020-09-09 19:00:00 28.8 3 Sur 13 Norte 0 957.7 -- 35
2020-09-09 18:00:00 29.9 7 Norte 18 Nordeste 0 957.8 -- 34
2020-09-09 17:00:00 31 4 Noroeste 15 Nordeste 0 958.2 -- 34
2020-09-09 16:00:00 30 5 Sur 18 Este 0 958.7 -- 36
2020-09-09 15:00:00 30.1 2 Sur 14 Sudeste 0 959.1 -- 38
2020-09-09 14:00:00 28.5 3 Sudeste 18 Este 0 959.9 -- 42
2020-09-09 13:00:00 27.5 8 Sudeste 20 Nordeste 0 960.4 -- 46
2020-09-09 12:00:00 25.5 8 Nordeste 16 Este 0 960.8 -- 50
2020-09-09 11:00:00 22.4 10 Este 18 Este 0 961.1 -- 54
2020-09-09 10:00:00 20.4 5 Este 9 Sudeste 0 960.7 -- 60
2020-09-09 09:00:00 17.1 0 Calma 8 Nordeste 0 960.3 -- 65
2020-09-09 08:00:00 14.2 0 Calma 9 Norte 0 960.1 -- 69
2020-09-09 07:00:00 14.6 0 Calma 8 Nordeste 0 959.6 -- 65
2020-09-09 06:00:00 16 4 Nordeste 7 Nordeste 0 959.3 -- 60
2020-09-09 05:00:00 17.4 2 Este 9 Nordeste 0 959.2 -- 56
2020-09-09 04:00:00 18.6 3 Este 9 Oeste 0 959.2 -- 51
2020-09-09 03:00:00 20.1 0 Calma 10 Este 0 959 -- 48
2020-09-09 02:00:00 20.7 5 Sudeste 22 Sudeste 0 959.1 -- 43
2020-09-09 01:00:00 21.5 8 Sudeste 16 Sudeste 0 959.3 -- 41
2020-09-09 00:00:00 22.4 10 Sudeste 19 Este 0 959.5 -- 39
2020-09-08 23:00:00 23 9 Este 16 Este 0 959.2 -- 36
2020-09-08 22:00:00 23.4 5 Sudeste 11 Este 0 958.6 -- 36
2020-09-08 21:00:00 24.6 2 Nordeste 10 Nordeste 0 958 -- 33
2020-09-08 20:00:00 25.9 6 Nordeste 22 Sudeste 0 957.8 -- 29
2020-09-08 19:00:00 27.1 6 Este 17 Este 0 957.5 -- 28
2020-09-08 18:00:00 29.1 8 Este 21 Sudeste 0 957.7 -- 28
2020-09-08 17:00:00 29 6 Este 22 Nordeste 0 957.9 -- 29
2020-09-08 16:00:00 29.4 0 Calma 22 Nordeste 0 958.2 -- 31
2020-09-08 15:00:00 28.2 10 Este 26 Este 0 958.9 -- 33
2020-09-08 14:00:00 27.3 10 Este 27 Nordeste 0 959.3 -- 37
2020-09-08 13:00:00 25.1 15 Este 31 Este 0 959.6 -- 45
2020-09-08 12:00:00 23.6 15 Este 26 Nordeste 0 960.2 -- 51
2020-09-08 11:00:00 21.7 11 Este 24 Este 0 960.3 -- 58
2020-09-08 10:00:00 19.3 13 Este 24 Este 0 960.2 -- 66
2020-09-08 09:00:00 17.3 4 Sudeste 10 Sudeste 0 960 -- 72
2020-09-08 08:00:00 15.3 4 Este 8 Nordeste 0 959.6 -- 76
2020-09-08 07:00:00 16.1 0 Calma 11 Este 0 959 -- 75
2020-09-08 06:00:00 16.5 5 Este 13 Este 0 958.4 -- 70
2020-09-08 05:00:00 17.1 3 Este 8 Este 0 958.5 -- 64
2020-09-08 04:00:00 17.5 5 Este 12 Nordeste 0 958.6 -- 49
2020-09-08 03:00:00 18.4 6 Nordeste 14 Nordeste 0 958.6 -- 39
2020-09-08 02:00:00 18.8 0 Calma 8 Oeste 0 958.3 -- 37
2020-09-08 01:00:00 20.5 0 Calma 5 Nordeste 0 958.3 -- 34
2020-09-08 00:00:00 21.7 0 Calma 6 Nordeste 0 958.3 -- 33
2020-09-07 23:00:00 22.9 3 Este 17 Este 0 957.8 -- 30
2020-09-07 22:00:00 24.8 9 Sudeste 22 Sur 0 957.4 -- 29
2020-09-07 21:00:00 25.3 4 Sudeste 26 Este 0 956.2 -- 30
2020-09-07 20:00:00 27.1 16 Nordeste 30 Nordeste 0 955.4 -- 31
2020-09-07 19:00:00 28.5 18 Nordeste 30 Nordeste 0 955.2 -- 31
2020-09-07 18:00:00 30 14 Nordeste 24 Nordeste 0 955 -- 29
2020-09-07 17:00:00 31.4 10 Norte 28 Nordeste 0 955 -- 29
2020-09-07 16:00:00 32.1 9 Nordeste 20 Nordeste 0 955.5 -- 29
2020-09-07 15:00:00 31.9 3 Norte 21 Nordeste 0 956.2 -- 31
2020-09-07 14:00:00 29.7 12 Nordeste 19 Norte 0 956.4 -- 33
2020-09-07 13:00:00 29.6 5 Este 22 Este 0 956.8 -- 33
2020-09-07 12:00:00 29.1 11 Este 24 Este 0 956.8 -- 35
2020-09-07 11:00:00 25.5 5 Este 10 Este 0 956.8 -- 42
2020-09-07 10:00:00 22.8 0 Calma 7 Nordeste 0 956.5 -- 46
2020-09-07 09:00:00 18.5 0 Calma 5 Este 0 956 -- 56
2020-09-07 08:00:00 16.1 2 Sudoeste 5 Sudoeste 0 955.6 -- 57
2020-09-07 07:00:00 16.8 0 Calma 2 Nordeste 0 955.1 -- 54
2020-09-07 06:00:00 17.6 0 Calma 4 Nordeste 0 954.5 -- 51
2020-09-07 05:00:00 19.4 0 Calma 5 Oeste 0 954.7 -- 47
2020-09-07 04:00:00 20.3 0 Calma 8 Norte 0 954.9 -- 45
2020-09-07 03:00:00 21 0 Calma 10 Noroeste 0 954.8 -- 42
2020-09-07 02:00:00 21.5 3 Sudoeste 14 Sudoeste 0 955.1 -- 39
2020-09-07 01:00:00 23.5 0 Calma 7 Sudoeste 0 954.7 -- 37
2020-09-07 00:00:00 24.8 0 Calma 9 Sudoeste 0 954.5 -- 34
2020-09-06 23:00:00 26.1 6 Sudoeste 8 Sudoeste 0 954.4 -- 32
2020-09-06 22:00:00 27 6 Noroeste 13 Sudoeste 0 953.8 -- 31
2020-09-06 21:00:00 29.3 8 Sudoeste 15 Sudoeste 0 953.1 -- 29
2020-09-06 20:00:00 31.2 5 Oeste 15 Oeste 0 953 -- 28
2020-09-06 19:00:00 33 5 Oeste 16 Sudoeste 0 953 -- 27
2020-09-06 18:00:00 34.8 5 Oeste 21 Oeste 0 953.4 -- 26
2020-09-06 17:00:00 35.5 8 Oeste 22 Sudoeste 0 953.9 -- 26
2020-09-06 16:00:00 34.7 9 Sudoeste 22 Sudoeste 0 954.1 -- 26
2020-09-06 15:00:00 35 4 Sur 18 Sudoeste 0 954.7 -- 29
2020-09-06 14:00:00 33 5 Sur 13 Nordeste 0 955.2 -- 32
2020-09-06 13:00:00 31.8 0 Calma 15 Noroeste 0 955.8 -- 35
2020-09-06 12:00:00 29.5 4 Este 12 Nordeste 0 956.1 -- 41
2020-09-06 11:00:00 24.9 5 Nordeste 10 Este 0 956.2 -- 47
2020-09-06 10:00:00 21.8 4 Este 8 Este 0 956.1 -- 49
2020-09-06 09:00:00 17.9 0 Calma 5 Norte 0 956 -- 53
2020-09-06 08:00:00 15.4 0 Calma 7 Nordeste 0 955.7 -- 55
2020-09-06 07:00:00 15.5 0 Calma 3 Noroeste 0 955.4 -- 53
2020-09-06 06:00:00 16.2 0 Calma 5 Nordeste 0 955.3 -- 50
2020-09-06 05:00:00 17.2 0 Calma 4 Nordeste 0 955.2 -- 47
2020-09-06 04:00:00 17.9 0 Calma 0 Calma 0 955.3 -- 43
2020-09-06 03:00:00 19 0 Calma 3 Sudeste 0 955.4 -- 41
2020-09-06 02:00:00 21.4 0 Calma 14 Este 0 955.8 -- 38
2020-09-06 01:00:00 22.6 0 Calma 5 Sudoeste 0 955.7 -- 35
2020-09-06 00:00:00 21.9 0 Calma 5 Este 0 955.7 -- 34
2020-09-05 23:00:00 24.3 0 Calma 10 Oeste 0 955.4 -- 30
2020-09-05 22:00:00 26.6 0 Calma 14 Oeste 0 955.1 -- 28
2020-09-05 21:00:00 28.6 7 Sudoeste 9 Sudoeste 0 954.6 -- 26
2020-09-05 20:00:00 30.7 5 Sudoeste 8 Sudoeste 0 954.6 -- 24
2020-09-05 19:00:00 32.3 0 Calma 11 Noroeste 0 955 -- 24
2020-09-05 18:00:00 34.2 4 Oeste 15 Oeste 0 955.3 -- 23
2020-09-05 17:00:00 34.6 3 Norte 18 Sudoeste 0 955.9 -- 24
2020-09-05 16:00:00 34.9 4 Oeste 17 Oeste 0 956.6 -- 26
2020-09-05 15:00:00 34.1 0 Calma 20 Este 0 957.5 -- 28
2020-09-05 14:00:00 32.8 3 Oeste 14 Este 0 958.2 -- 29
2020-09-05 13:00:00 31.5 5 Este 13 Este 0 958.7 -- 35
2020-09-05 12:00:00 28.6 5 Este 13 Este 0 959.1 -- 42
2020-09-05 11:00:00 25.1 5 Sudeste 10 Sudeste 0 959.3 -- 48
2020-09-05 10:00:00 20.5 5 Este 9 Este 0 959.6 -- 53
2020-09-05 09:00:00 16.6 0 Calma 4 Este 0 959.6 -- 56
2020-09-05 08:00:00 13.2 0 Calma 5 Noroeste 0 959.3 -- 61
2020-09-05 07:00:00 13.9 0 Calma 4 Sudoeste 0 958.8 -- 56
2020-09-05 06:00:00 15 0 Calma 4 Nordeste 0 958.8 -- 53
2020-09-05 05:00:00 16.1 0 Calma 4 Nordeste 0 958.8 -- 49
2020-09-05 04:00:00 17.4 0 Calma 6 Sur 0 958.8 -- 46
2020-09-05 03:00:00 18.1 3 Sudoeste 5 Sudoeste 0 959.3 -- 42
2020-09-05 02:00:00 19.3 2 Sudoeste 6 Oeste 0 959.7 -- 40
2020-09-05 01:00:00 22.4 4 Sudoeste 8 Sudoeste 0 959.8 -- 34
2020-09-05 00:00:00 23.7 4 Norte 10 Norte 0 959.5 -- 30
2020-09-04 23:00:00 26.6 5 Sudeste 14 Sudeste 0 959.2 -- 28
2020-09-04 22:00:00 26.8 3 Sudeste 8 Este 0 959 -- 26
2020-09-04 21:00:00 28.5 3 Sudeste 15 Nordeste 0 958.6 -- 24
2020-09-04 20:00:00 30.1 5 Este 22 Sur 0 958.4 -- 23
2020-09-04 19:00:00 31.6 10 Este 21 Sudeste 0 958.6 -- 20
2020-09-04 18:00:00 33.7 14 Este 26 Este 0 958.6 -- 21
2020-09-04 17:00:00 32.9 12 Este 28 Este 0 958.9 -- 24
2020-09-04 16:00:00 32.5 15 Este 30 Este 0 959.7 -- 26
2020-09-04 15:00:00 33 12 Este 28 Nordeste 0 960.4 -- 28
2020-09-04 14:00:00 32.2 13 Este 28 Este 0 961 -- 33
2020-09-04 13:00:00 30.6 5 Sur 21 Sur 0 961.8 -- 38
2020-09-04 12:00:00 28.6 5 Sudeste 15 Este 0 962.2 -- 42
2020-09-04 11:00:00 25.4 5 Este 12 Nordeste 0 962.2 -- 47
2020-09-04 10:00:00 21.5 4 Nordeste 8 Nordeste 0 962 -- 53
2020-09-04 09:00:00 18.5 0 Calma 5 Nordeste 0 961.8 -- 58
2020-09-04 08:00:00 14.6 0 Calma 6 Norte 0 961.2 -- 64
2020-09-04 07:00:00 15.7 0 Calma 2 Nordeste 0 960.7 -- 58
2020-09-04 06:00:00 17.2 0 Calma 5 Nordeste 0 960.6 -- 54
2020-09-04 05:00:00 17.6 0 Calma 5 Norte 0 960.5 -- 52
2020-09-04 04:00:00 20.8 3 Sudeste 8 Este 0 960 -- 46
2020-09-04 03:00:00 20.1 0 Calma 9 Sudeste 0 960.5 -- 43
2020-09-04 02:00:00 22.9 8 Sur 13 Sudoeste 0 960.5 -- 39
2020-09-04 01:00:00 22.2 0 Calma 6 Este 0 960.4 -- 37
2020-09-04 00:00:00 22.6 3 Este 5 Nordeste 0 960 -- 34
2020-09-03 23:00:00 24.1 2 Este 5 Sur 0 959.7 -- 32
2020-09-03 22:00:00 26.5 2 Nordeste 9 Sur 0 959.1 -- 29
2020-09-03 21:00:00 28.9 7 Sur 17 Sudeste 0 958.6 -- 27
2020-09-03 20:00:00 30.3 11 Sur 22 Sudeste 0 958.3 -- 26
2020-09-03 19:00:00 31.6 12 Sudeste 23 Sudeste 0 958.3 -- 25
2020-09-03 18:00:00 33.1 9 Sur 25 Sudeste 0 958 -- 25
2020-09-03 17:00:00 34.2 5 Nordeste 25 Sudeste 0 958.3 -- 25
2020-09-03 16:00:00 34.1 13 Sudeste 27 Sudeste 0 958.7 -- 26
2020-09-03 15:00:00 33.5 9 Sudeste 20 Este 0 959.3 -- 28
2020-09-03 14:00:00 31.9 9 Sudeste 20 Sudeste 0 959.7 -- 28
2020-09-03 13:00:00 31.3 4 Este 18 Sudeste 0 959.9 -- 32
2020-09-03 12:00:00 29 6 Sudeste 17 Sudeste 0 960.3 -- 36
2020-09-03 11:00:00 23.9 6 Este 12 Este 0 960.1 -- 43
2020-09-03 10:00:00 20.2 6 Este 12 Este 0 959.8 -- 50
2020-09-03 09:00:00 17.4 0 Calma 5 Sudeste 0 959.5 -- 53
2020-09-03 08:00:00 13.1 0 Calma 5 Nordeste 0 958.8 -- 60
2020-09-03 07:00:00 13.2 0 Calma 3 Sur 0 958.2 -- 57
2020-09-03 06:00:00 14.7 0 Calma 6 Oeste 0 957.7 -- 52
2020-09-03 05:00:00 14.8 2 Nordeste 6 Sur 0 957.5 -- 50
2020-09-03 04:00:00 16.7 0 Calma 4 Sudoeste 0 957.6 -- 45
2020-09-03 03:00:00 17.6 0 Calma 3 Sudoeste 0 957.4 -- 43
2020-09-03 02:00:00 18.8 0 Calma 6 Sudoeste 0 957.4 -- 38
2020-09-03 01:00:00 22 2 Sudoeste 8 Noroeste 0 956.9 -- 34
2020-09-03 00:00:00 24.6 4 Este 8 Sur 0 956.9 -- 31
2020-09-02 23:00:00 25.2 3 Nordeste 13 Norte 0 956.4 -- 29
2020-09-02 22:00:00 25.4 7 Noroeste 13 Noroeste 0 955.6 -- 28
2020-09-02 21:00:00 27.4 4 Oeste 9 Sudoeste 0 954.8 -- 25
2020-09-02 20:00:00 29.2 3 Noroeste 13 Oeste 0 954.3 -- 25
2020-09-02 19:00:00 30.1 2 Sudeste 14 Sudeste 0 954 -- 24
2020-09-02 18:00:00 31.7 3 Este 14 Nordeste 0 953.9 -- 24
2020-09-02 17:00:00 33.1 5 Sudeste 18 Sudeste 0 953.9 -- 24
2020-09-02 16:00:00 32.2 5 Este 23 Sur 0 953.9 -- 25
2020-09-02 15:00:00 32.6 3 Sudeste 23 Este 0 954.3 -- 26
2020-09-02 14:00:00 31.3 4 Sudeste 20 Sur 0 954.6 -- 27
2020-09-02 13:00:00 29.7 4 Sudeste 15 Sudeste 0 955.1 -- 33
2020-09-02 12:00:00 26.1 4 Nordeste 13 Nordeste 0 955.3 -- 37
2020-09-02 11:00:00 22.5 5 Este 12 Nordeste 0 955 -- 43
2020-09-02 10:00:00 18 3 Este 11 Nordeste 0 954.5 -- 46
2020-09-02 09:00:00 15.3 0 Calma 7 Norte 0 954.3 -- 52
2020-09-02 08:00:00 12.1 2 Sur 9 Sudoeste 0 953.8 -- 55
2020-09-02 07:00:00 12.6 0 Calma 5 Sudoeste 0 953.2 -- 51
2020-09-02 06:00:00 13 0 Calma 4 Nordeste 0 952.7 -- 48
2020-09-02 05:00:00 14.1 0 Calma 5 Nordeste 0 952.6 -- 46
2020-09-02 04:00:00 15.9 0 Calma 9 Sudeste 0 952.3 -- 43
2020-09-02 03:00:00 17.4 0 Calma 4 Sudoeste 0 952.2 -- 37
2020-09-02 02:00:00 19.1 0 Calma 5 Sudoeste 0 952.2 -- 34
2020-09-02 01:00:00 19.3 3 Sudoeste 9 Oeste 0 952.2 -- 32
2020-09-02 00:00:00 22 0 Calma 7 Oeste 0 951.9 -- 29
2020-09-01 23:00:00 23.2 0 Calma 10 Sudoeste 0 951.8 -- 27
2020-09-01 22:00:00 23.9 4 Oeste 9 Oeste 0 951.3 -- 26
2020-09-01 21:00:00 25.7 6 Sudoeste 15 Oeste 0 951 -- 24
2020-09-01 20:00:00 27.7 6 Sudoeste 17 Sudoeste 0 950.7 -- 24
2020-09-01 19:00:00 28.4 6 Sudoeste 21 Sudoeste 0 950.8 -- 24
2020-09-01 18:00:00 28.4 13 Sudoeste 25 Sudoeste 0 950.8 -- 24
2020-09-01 17:00:00 28.7 9 Sudoeste 24 Sudeste 0 951.1 -- 24
2020-09-01 16:00:00 29.5 3 Norte 18 Sudoeste 0 951.5 -- 25
2020-09-01 15:00:00 30.5 5 Sudeste 23 Sudoeste 0 952.1 -- 24
2020-09-01 14:00:00 28.8 4 Sur 16 Este 0 952.8 -- 27
2020-09-01 13:00:00 26.5 5 Este 12 Este 0 953.6 -- 30
2020-09-01 12:00:00 22.5 4 Este 10 Este 0 954.5 -- 37
2020-09-01 11:00:00 18.8 3 Este 9 Este 0 954.2 -- 46
2020-09-01 10:00:00 15 0 Calma 6 Este 0 954.4 -- 52
2020-09-01 09:00:00 13.6 0 Calma 5 Este 0 954.3 -- 56
2020-09-01 08:00:00 12.5 2 Este 4 Este 0 954.3 -- 58
2020-09-01 07:00:00 12.4 0 Calma 3 Sudoeste 0 954 -- 56
2020-09-01 06:00:00 12.4 0 Calma 3 Nordeste 0 954.3 -- 56
2020-09-01 05:00:00 13 0 Calma 2 Nordeste 0 954.7 -- 53
2020-09-01 04:00:00 13.4 0 Calma 0 Calma 0 955.1 -- 49
2020-09-01 03:00:00 14.9 0 Calma 3 Este 0 955.6 -- 45
2020-09-01 02:00:00 16.1 0 Calma 0 Calma 0 955.8 -- 41
2020-09-01 01:00:00 17.8 0 Calma 6 Sudoeste 0 956 -- 36
2020-09-01 00:00:00 19.5 4 Sudoeste 12 Noroeste 0 955.4 -- 33
2020-08-31 23:00:00 21.8 8 Oeste 11 Noroeste 0 955.3 -- 30
2020-08-31 22:00:00 22.5 5 Oeste 12 Sudoeste 0 954.8 -- 28
2020-08-31 21:00:00 25 5 Oeste 8 Sudoeste 0 954.5 -- 25
2020-08-31 20:00:00 26.5 0 Calma 10 Oeste 0 954.5 -- 24
2020-08-31 19:00:00 27.1 3 Noroeste 15 Sudoeste 0 955 -- 23
2020-08-31 18:00:00 29.1 5 Sur 13 Sur 0 955.3 -- 22
2020-08-31 17:00:00 29.3 4 Oeste 16 Oeste 0 956 -- 22
2020-08-31 16:00:00 29.7 5 Sudeste 14 Este 0 956.5 -- 24
2020-08-31 15:00:00 26.6 3 Nordeste 18 Este 0 957.3 -- 25
2020-08-31 14:00:00 28.1 4 Sudeste 18 Sudeste 0 957.8 -- 26
2020-08-31 13:00:00 25.1 5 Sudeste 22 Sudeste 0 958.3 -- 28
2020-08-31 12:00:00 24.2 9 Sudeste 21 Sudeste 0 958.6 -- 36
2020-08-31 11:00:00 21.1 5 Este 14 Este 0 958.6 -- 43
2020-08-31 10:00:00 17.5 5 Este 12 Este 0 958.6 -- 49
2020-08-31 09:00:00 13.9 2 Este 5 Este 0 958.4 -- 54
2020-08-31 08:00:00 10.1 0 Calma 3 Nordeste 0 958 -- 60
2020-08-31 07:00:00 9.9 0 Calma 7 Sudoeste 0 957.2 -- 57
2020-08-31 06:00:00 12.7 3 Norte 11 Sudoeste 0 957.1 -- 50
2020-08-31 05:00:00 11.9 0 Calma 6 Oeste 0 957 -- 49
2020-08-31 04:00:00 14.3 2 Oeste 6 Oeste 0 956.9 -- 43
2020-08-31 03:00:00 15 0 Calma 13 Sudoeste 0 956.8 -- 41
2020-08-31 02:00:00 16.9 3 Norte 8 Este 0 956.9 -- 37
2020-08-31 01:00:00 18.3 6 Este 20 Sudeste 0 956.6 -- 36
2020-08-31 00:00:00 19.1 7 Este 17 Este 0 956.1 -- 34
2020-08-30 23:00:00 20.6 6 Sudeste 18 Sudeste 0 955.8 -- 33
2020-08-30 22:00:00 21 8 Nordeste 21 Nordeste 0 954.4 -- 33
2020-08-30 21:00:00 22.2 13 Nordeste 22 Nordeste 0 953.6 -- 32
2020-08-30 20:00:00 23.7 6 Norte 14 Sudoeste 0 952.9 -- 29
2020-08-30 19:00:00 25.1 5 Sudoeste 13 Sur 0 952.4 -- 29
2020-08-30 18:00:00 26.3 0 Calma 13 Sudoeste 0 952.5 -- 29
2020-08-30 17:00:00 24.4 5 Oeste 19 Sudoeste 0 952.7 -- 30
2020-08-30 16:00:00 24.7 5 Sudeste 19 Sur 0 953.1 -- 30
2020-08-30 15:00:00 26.3 2 Nordeste 17 Norte 0 953.4 -- 31
2020-08-30 14:00:00 25.1 4 Sudeste 20 Este 0 953.8 -- 34
2020-08-30 13:00:00 24.3 7 Sudeste 23 Este 0 954.1 -- 36
2020-08-30 12:00:00 23.3 10 Sudeste 21 Sudeste 0 954.2 -- 38
2020-08-30 11:00:00 21.2 9 Este 19 Este 0 954.2 -- 42
2020-08-30 10:00:00 18.5 5 Este 9 Este 0 953.9 -- 50
2020-08-30 09:00:00 16.1 4 Este 6 Este 0 953.7 -- 55
2020-08-30 08:00:00 12.8 0 Calma 3 Norte 0 953.3 -- 61
2020-08-30 07:00:00 13.6 0 Calma 5 Este 0 953.2 -- 58
2020-08-30 06:00:00 13.6 0 Calma 7 Este 0 952.9 -- 55
2020-08-30 05:00:00 15.2 5 Sudeste 10 Este 0 952.6 -- 50
2020-08-30 04:00:00 16.1 6 Este 19 Sudeste 0 952.1 -- 47
2020-08-30 03:00:00 17.6 9 Este 17 Sudeste 0 952.2 -- 43
2020-08-30 02:00:00 18 0 Calma 12 Nordeste 0 951.9 -- 42
2020-08-30 01:00:00 18.3 4 Nordeste 18 Nordeste 0 951.2 -- 40
2020-08-30 00:00:00 19.5 10 Nordeste 24 Nordeste 0 950.8 -- 37
2020-08-29 23:00:00 20.7 9 Nordeste 18 Noroeste 0 950.3 -- 33
2020-08-29 22:00:00 21.2 4 Noroeste 19 Norte 0 949.6 -- 31
2020-08-29 21:00:00 22.2 6 Norte 18 Noroeste 0 948.6 -- 30
2020-08-29 20:00:00 23 5 Norte 21 Norte 0 948.2 -- 30
2020-08-29 19:00:00 24 8 Norte 21 Norte 0 947.9 -- 30
2020-08-29 18:00:00 25.3 6 Norte 20 Norte 0 947.8 -- 30
2020-08-29 17:00:00 26.5 4 Norte 27 Norte 0 947.7 -- 29
2020-08-29 16:00:00 24.2 7 Norte 22 Nordeste 0 947.9 -- 29
2020-08-29 15:00:00 27.2 3 Noroeste 27 Nordeste 0 948.2 -- 30
2020-08-29 14:00:00 26.4 6 Noroeste 22 Norte 0 948.3 -- 31
2020-08-29 13:00:00 23.8 10 Norte 19 Norte 0 948.1 -- 33
2020-08-29 12:00:00 23.4 11 Nordeste 28 Nordeste 0 948.1 -- 38
2020-08-29 11:00:00 21.9 9 Nordeste 21 Nordeste 0 948.1 -- 45
2020-08-29 10:00:00 19.6 4 Este 10 Este 0 947.6 -- 54
2020-08-29 09:00:00 16.7 3 Oeste 13 Oeste 0 947.5 -- 60
2020-08-29 08:00:00 14 2 Oeste 13 Sudoeste 0 946.9 -- 69
2020-08-29 07:00:00 14.8 7 Sudoeste 12 Sudoeste 0 946.8 -- 67
2020-08-29 06:00:00 15.6 5 Sudoeste 8 Sudoeste 0 946.3 -- 63
2020-08-29 05:00:00 16.5 2 Oeste 15 Oeste 0 946 -- 60
2020-08-29 04:00:00 17.8 7 Sudoeste 24 Sudoeste 0 946.3 -- 52
2020-08-29 03:00:00 18.9 7 Oeste 21 Oeste 0 946.4 -- 47
2020-08-29 02:00:00 19.5 9 Oeste 20 Oeste 0 946.4 -- 43
2020-08-29 01:00:00 20.9 10 Oeste 24 Oeste 0 946.7 -- 38
2020-08-29 00:00:00 21.9 9 Oeste 28 Sudoeste 0 947 -- 34
2020-08-28 23:00:00 23.3 17 Sudoeste 33 Sudoeste 0 947.2 -- 29
2020-08-28 22:00:00 24.8 10 Sudoeste 23 Sudoeste 0 947.3 -- 25
2020-08-28 21:00:00 26.7 9 Sudoeste 23 Sudoeste 0 946.5 -- 29
2020-08-28 20:00:00 28.5 13 Sudoeste 31 Sudoeste 0 946.7 -- 31
2020-08-28 19:00:00 29.7 13 Sudoeste 33 Sudoeste 0 947 -- 32
2020-08-28 18:00:00 31.7 10 Oeste 29 Oeste 0 947.2 -- 28
2020-08-28 17:00:00 32.6 11 Oeste 37 Sudoeste 0 947.6 -- 29
2020-08-28 16:00:00 31.4 15 Sudoeste 33 Sudoeste 0 947.7 -- 33
2020-08-28 15:00:00 30.9 15 Oeste 35 Sudoeste 0 949.2 -- 37
2020-08-28 14:00:00 30.2 13 Sudoeste 29 Sudoeste 0 949.9 -- 40
2020-08-28 13:00:00 30.2 6 Oeste 22 Oeste 0 950.5 -- 39
2020-08-28 12:00:00 29.2 6 Sudoeste 23 Oeste 0 950.6 -- 47
2020-08-28 11:00:00 27.1 7 Oeste 17 Oeste 0 950.8 -- 54
2020-08-28 10:00:00 24.1 3 Sudoeste 12 Oeste 0 950.9 -- 62
2020-08-28 09:00:00 21.9 4 Sur 11 Sudoeste 0 951 -- 71
2020-08-28 08:00:00 20.2 3 Sudoeste 10 Sudoeste 0 951.1 -- 76
2020-08-28 07:00:00 20.9 5 Sudoeste 11 Oeste 0 950.9 -- 70
2020-08-28 06:00:00 21.7 7 Sudoeste 12 Sudoeste 0 950.9 -- 65
2020-08-28 05:00:00 22.5 7 Sudoeste 13 Sudoeste 0 951.1 -- 62
2020-08-28 04:00:00 22.3 0 Calma 12 Oeste 0 951.5 -- 59
2020-08-28 03:00:00 24.6 6 Sudoeste 12 Sudoeste 0 952 -- 54
2020-08-28 02:00:00 25.1 5 Sudoeste 12 Oeste 0 952.7 -- 50
2020-08-28 01:00:00 26.7 6 Oeste 13 Noroeste 0 952.9 -- 46
2020-08-28 00:00:00 27.1 0 Calma 9 Noroeste 0 952.9 -- 43
2020-08-27 23:00:00 27.7 3 Sudoeste 9 Sudoeste 0 953.1 -- 38
2020-08-27 22:00:00 29.1 5 Sudoeste 10 Sudoeste 0 953 -- 30
2020-08-27 21:00:00 30.9 5 Sudoeste 13 Oeste 0 952.8 -- 28
2020-08-27 20:00:00 33.5 4 Oeste 15 Sudoeste 0 952.6 -- 23
2020-08-27 19:00:00 35.3 4 Oeste 20 Oeste 0 953.4 -- 22
2020-08-27 18:00:00 37.3 8 Oeste 22 Sudoeste 0 954 -- 22
2020-08-27 17:00:00 37.3 6 Oeste 22 Sudoeste 0 954.7 -- 20
2020-08-27 16:00:00 36.3 10 Sudoeste 22 Sur 0 955.2 -- 22
2020-08-27 15:00:00 37.4 5 Sudoeste 18 Oeste 0 956.2 -- 22
2020-08-27 14:00:00 36 4 Sur 15 Sudoeste 0 956.9 -- 26
2020-08-27 13:00:00 35.9 3 Norte 12 Este 0 957.4 -- 28
2020-08-27 12:00:00 31.8 3 Este 9 Nordeste 0 957.9 -- 32
2020-08-27 11:00:00 27.6 3 Este 8 Este 0 958 -- 39
2020-08-27 10:00:00 21.8 4 Este 8 Este 0 958.1 -- 48
2020-08-27 09:00:00 18.3 0 Calma 4 Este 0 958.2 -- 57
2020-08-27 08:00:00 15.4 0 Calma 0 Calma 0 957.9 -- 62
2020-08-27 07:00:00 16.2 0 Calma 3 Nordeste 0 957.7 -- 60
2020-08-27 06:00:00 17 0 Calma -- -- 0 957.6 -- 55
2020-08-27 05:00:00 17.8 0 Calma 2 Sudoeste 0 957.9 -- 50
2020-08-27 04:00:00 19.1 0 Calma -- -- 0 958.1 -- 46
2020-08-27 03:00:00 20.7 0 Calma 4 Sudoeste 0 958.3 -- 43
2020-08-27 02:00:00 21.9 0 Calma 3 Este 0 958.5 -- 40
2020-08-27 01:00:00 23.2 0 Calma 9 Oeste 0 958.4 -- 36
2020-08-27 00:00:00 26.9 8 Sudoeste 14 Sudoeste 0 958.3 -- 31
2020-08-26 23:00:00 27.7 4 Oeste 12 Sudoeste 0 958 -- 28
2020-08-26 22:00:00 28.6 6 Sudoeste 9 Sudoeste 0 957.7 -- 27
2020-08-26 21:00:00 30.8 4 Sudoeste 12 Oeste 0 957.1 -- 24
2020-08-26 20:00:00 33.5 6 Oeste 15 Oeste 0 957 -- 22
2020-08-26 19:00:00 35.2 4 Oeste 20 Oeste 0 956.9 -- 22
2020-08-26 18:00:00 36.6 7 Oeste 20 Oeste 0 957.1 -- 21
2020-08-26 17:00:00 37.9 7 Oeste 20 Sudoeste 0 957.4 -- 21
2020-08-26 16:00:00 37.4 3 Noroeste 21 Sudoeste 0 957.5 -- 22
2020-08-26 15:00:00 36.5 12 Sudoeste 21 Sudoeste 0 957.9 -- 24
2020-08-26 14:00:00 36.6 5 Sudoeste 17 Sudeste 0 958.3 -- 24
2020-08-26 13:00:00 36.2 4 Nordeste 14 Norte 0 958.7 -- 26
2020-08-26 12:00:00 33 5 Este 11 Este 0 958.8 -- 30
2020-08-26 11:00:00 27.5 5 Este 9 Nordeste 0 958.4 -- 38
2020-08-26 10:00:00 23.7 2 Este 6 Sudeste 0 958 -- 45
2020-08-26 09:00:00 18.7 2 Sudeste 5 Sudeste 0 957.6 -- 56
2020-08-26 08:00:00 16.7 0 Calma 0 Calma 0 957.5 -- 61
2020-08-26 07:00:00 16.8 0 Calma 3 Nordeste 0 957.2 -- 58
2020-08-26 06:00:00 17.4 0 Calma 5 Sudoeste 0 957.1 -- 54
2020-08-26 05:00:00 19.3 0 Calma 4 Norte 0 956.8 -- 49
2020-08-26 04:00:00 18.8 3 Sudoeste 5 Sudoeste 0 956.8 -- 47
2020-08-26 03:00:00 20.2 0 Calma 4 Nordeste 0 956.5 -- 43
2020-08-26 02:00:00 22.2 0 Calma 2 Nordeste 0 956.4 -- 39
2020-08-26 01:00:00 23.4 0 Calma 7 Oeste 0 956.5 -- 36
2020-08-26 00:00:00 26.6 4 Oeste 8 Oeste 0 956.3 -- 31
2020-08-25 23:00:00 28 7 Sudoeste 11 Sudoeste 0 955.9 -- 29
2020-08-25 22:00:00 28.6 5 Oeste 13 Oeste 0 955.1 -- 27
2020-08-25 21:00:00 31.7 7 Sudoeste 13 Sudoeste 0 954.2 -- 24
2020-08-25 20:00:00 34 6 Oeste 15 Sudoeste 0 953.8 -- 22
2020-08-25 19:00:00 35.3 4 Sudoeste 19 Oeste 0 954 -- 21
2020-08-25 18:00:00 37.4 4 Norte 16 Oeste 0 954.2 -- 22
2020-08-25 17:00:00 37.2 6 Oeste 17 Oeste 0 954.3 -- 23
2020-08-25 16:00:00 37.5 4 Noroeste 20 Oeste 0 954.9 -- 24
2020-08-25 15:00:00 35.4 4 Sudoeste 17 Sudoeste 0 955.3 -- 25
2020-08-25 14:00:00 35.4 8 Oeste 18 Oeste 0 955.7 -- 26
2020-08-25 13:00:00 34.9 4 Este 11 Este 0 955.8 -- 27
2020-08-25 12:00:00 31.3 5 Este 12 Nordeste 0 956.1 -- 32
2020-08-25 11:00:00 27 4 Este 9 Nordeste 0 955.9 -- 37
2020-08-25 10:00:00 22.3 3 Este 7 Este 0 955.9 -- 43
2020-08-25 09:00:00 18 2 Este 5 Sudeste 0 955.8 -- 51
2020-08-25 08:00:00 15.1 0 Calma 3 Nordeste 0 955.4 -- 55
2020-08-25 07:00:00 15.3 0 Calma 4 Sudoeste 0 954.9 -- 52
2020-08-25 06:00:00 16 0 Calma 7 Oeste 0 954.8 -- 49
2020-08-25 05:00:00 17.2 0 Calma 4 Nordeste 0 954.6 -- 45
2020-08-25 04:00:00 19.3 2 Sudoeste 5 Sudoeste 0 954.4 -- 40
2020-08-25 03:00:00 19.6 0 Calma 5 Sudoeste 0 954.4 -- 37
2020-08-25 02:00:00 21.6 5 Sudoeste 11 Norte 0 954.5 -- 34
2020-08-25 01:00:00 21.9 0 Calma 4 Sur 0 954.3 -- 30
2020-08-25 00:00:00 24.5 0 Calma 6 Noroeste 0 954.2 -- 26
2020-08-24 23:00:00 26.8 4 Oeste 9 Sudoeste 0 954.3 -- 23
2020-08-24 22:00:00 28.7 9 Sudoeste 13 Sudoeste 0 953.7 -- 21
2020-08-24 21:00:00 30.6 7 Sudoeste 11 Oeste 0 953 -- 19
2020-08-24 20:00:00 32.9 6 Sudoeste 9 Oeste 0 952.9 -- 17
2020-08-24 19:00:00 33.8 4 Sudoeste 13 Sudoeste 0 953.1 -- 17
2020-08-24 18:00:00 35.6 0 Calma 21 Oeste 0 953.8 -- 17
2020-08-24 17:00:00 35.7 2 Oeste 15 Sudoeste 0 953.9 -- 17
2020-08-24 16:00:00 36 5 Nordeste 17 Nordeste 0 954.3 -- 17
2020-08-24 15:00:00 35.6 6 Sudeste 19 Sudoeste 0 954.7 -- 18
2020-08-24 14:00:00 34.8 6 Sudeste 15 Sur 0 955.3 -- 20
2020-08-24 13:00:00 31.9 6 Este 13 Este 0 956 -- 28
2020-08-24 12:00:00 29.5 4 Este 11 Este 0 956.4 -- 35
2020-08-24 11:00:00 24.8 4 Nordeste 10 Nordeste 0 956.5 -- 37
2020-08-24 10:00:00 20.9 3 Este 8 Nordeste 0 956.4 -- 40
2020-08-24 09:00:00 16.3 3 Nordeste 6 Nordeste 0 956.4 -- 50
2020-08-24 08:00:00 13.5 0 Calma 5 Norte 0 956.1 -- 54
2020-08-24 07:00:00 12.9 0 Calma 6 Noroeste 0 955.5 -- 51
2020-08-24 06:00:00 15.7 3 Noroeste 6 Noroeste 0 955.5 -- 45
2020-08-24 05:00:00 14.7 2 Sudoeste 5 Nordeste 0 955.5 -- 45
2020-08-24 04:00:00 15.5 0 Calma 9 Oeste 0 955.7 -- 41
2020-08-24 03:00:00 17.3 0 Calma 5 Este 0 955.6 -- 37
2020-08-24 02:00:00 19.5 0 Calma 4 Noroeste 0 955.8 -- 29
2020-08-24 01:00:00 20.7 0 Calma 6 Oeste 0 956.1 -- 26
2020-08-24 00:00:00 21.6 0 Calma 11 Sudoeste 0 956.1 -- 22